sensor_id;sensor_type;location;lat;lon;timestamp;pressure;altitude;pressure_sealevel;temperature;humidity
73981;BME280;62348;51.412;5.436;2022-11-20T00:03:35;101155.16;;;0.11;74.09
73981;BME280;62348;51.412;5.436;2022-11-20T00:06:02;101160.47;;;0.11;74.50
73981;BME280;62348;51.412;5.436;2022-11-20T00:08:28;101155.56;;;0.08;75.09
73981;BME280;62348;51.412;5.436;2022-11-20T00:10:54;101150.13;;;0.01;74.64
73981;BME280;62348;51.412;5.436;2022-11-20T00:13:19;101148.03;;;-0.04;73.95
73981;BME280;62348;51.412;5.436;2022-11-20T00:15:44;101159.84;;;-0.06;75.33
73981;BME280;62348;51.412;5.436;2022-11-20T00:18:10;101158.56;;;-0.10;75.27
73981;BME280;62348;51.412;5.436;2022-11-20T00:20:35;101155.44;;;-0.14;75.23
73981;BME280;62348;51.412;5.436;2022-11-20T00:23:00;101153.59;;;-0.13;75.36
73981;BME280;62348;51.412;5.436;2022-11-20T00:25:26;101149.66;;;-0.17;75.54
73981;BME280;62348;51.412;5.436;2022-11-20T00:27:51;101144.72;;;-0.21;75.61
73981;BME280;62348;51.412;5.436;2022-11-20T00:30:17;101139.94;;;-0.25;75.78
73981;BME280;62348;51.412;5.436;2022-11-20T00:32:42;101140.97;;;-0.26;76.69
73981;BME280;62348;51.412;5.436;2022-11-20T00:35:08;101145.00;;;-0.30;76.70
73981;BME280;62348;51.412;5.436;2022-11-20T00:37:33;101146.97;;;-0.32;76.93
73981;BME280;62348;51.412;5.436;2022-11-20T00:39:58;101149.63;;;-0.32;75.97
73981;BME280;62348;51.412;5.436;2022-11-20T00:42:24;101148.81;;;-0.33;76.58
73981;BME280;62348;51.412;5.436;2022-11-20T00:44:49;101145.34;;;-0.33;76.91
73981;BME280;62348;51.412;5.436;2022-11-20T00:47:14;101143.03;;;-0.36;76.14
73981;BME280;62348;51.412;5.436;2022-11-20T00:49:40;101148.72;;;-0.40;76.38
73981;BME280;62348;51.412;5.436;2022-11-20T00:52:05;101140.94;;;-0.41;76.95
73981;BME280;62348;51.412;5.436;2022-11-20T00:54:30;101149.72;;;-0.41;77.11
73981;BME280;62348;51.412;5.436;2022-11-20T00:56:56;101144.59;;;-0.42;77.20
73981;BME280;62348;51.412;5.436;2022-11-20T00:59:21;101141.28;;;-0.44;77.59
73981;BME280;62348;51.412;5.436;2022-11-20T01:01:47;101137.19;;;-0.47;77.17
73981;BME280;62348;51.412;5.436;2022-11-20T01:04:12;101139.00;;;-0.47;77.28
73981;BME280;62348;51.412;5.436;2022-11-20T01:06:38;101135.88;;;-0.51;76.86
73981;BME280;62348;51.412;5.436;2022-11-20T01:09:11;101146.13;;;-0.48;77.99
73981;BME280;62348;51.412;5.436;2022-11-20T01:11:40;101143.69;;;-0.49;77.93
73981;BME280;62348;51.412;5.436;2022-11-20T01:14:09;101148.31;;;-0.51;77.99
73981;BME280;62348;51.412;5.436;2022-11-20T01:16:38;101144.50;;;-0.49;78.51
73981;BME280;62348;51.412;5.436;2022-11-20T01:19:05;101147.97;;;-0.48;78.61
73981;BME280;62348;51.412;5.436;2022-11-20T01:21:37;101152.09;;;-0.46;78.42
73981;BME280;62348;51.412;5.436;2022-11-20T01:24:03;101150.94;;;-0.43;78.13
73981;BME280;62348;51.412;5.436;2022-11-20T01:26:31;101148.28;;;-0.43;78.53
73981;BME280;62348;51.412;5.436;2022-11-20T01:28:58;101146.91;;;-0.39;79.19
73981;BME280;62348;51.412;5.436;2022-11-20T01:31:28;101153.84;;;-0.38;78.68
73981;BME280;62348;51.412;5.436;2022-11-20T01:33:55;101149.00;;;-0.34;77.72
73981;BME280;62348;51.412;5.436;2022-11-20T01:36:23;101140.69;;;-0.31;78.04
73981;BME280;62348;51.412;5.436;2022-11-20T01:38:53;101137.84;;;-0.30;78.27
73981;BME280;62348;51.412;5.436;2022-11-20T01:41:19;101134.63;;;-0.25;78.30
73981;BME280;62348;51.412;5.436;2022-11-20T01:44:04;101135.66;;;-0.26;77.53
73981;BME280;62348;51.412;5.436;2022-11-20T01:46:34;101146.09;;;-0.25;78.28
73981;BME280;62348;51.412;5.436;2022-11-20T01:49:04;101142.41;;;-0.24;77.84
73981;BME280;62348;51.412;5.436;2022-11-20T01:51:36;101141.59;;;-0.24;78.11
73981;BME280;62348;51.412;5.436;2022-11-20T01:54:06;101150.84;;;-0.20;78.34
73981;BME280;62348;51.412;5.436;2022-11-20T01:56:37;101148.84;;;-0.18;78.20
73981;BME280;62348;51.412;5.436;2022-11-20T01:59:05;101146.81;;;-0.16;78.50
73981;BME280;62348;51.412;5.436;2022-11-20T02:01:32;101144.81;;;-0.14;78.98
73981;BME280;62348;51.412;5.436;2022-11-20T02:03:58;101144.00;;;-0.14;78.15
73981;BME280;62348;51.412;5.436;2022-11-20T02:06:48;101135.44;;;-0.10;78.66
73981;BME280;62348;51.412;5.436;2022-11-20T02:09:15;101135.84;;;-0.13;78.79
73981;BME280;62348;51.412;5.436;2022-11-20T02:11:41;101132.34;;;-0.13;78.79
73981;BME280;62348;51.412;5.436;2022-11-20T02:14:06;101129.50;;;-0.12;79.18
73981;BME280;62348;51.412;5.436;2022-11-20T02:16:43;101124.00;;;-0.10;79.02
73981;BME280;62348;51.412;5.436;2022-11-20T02:19:24;101131.81;;;-0.09;78.83
73981;BME280;62348;51.412;5.436;2022-11-20T02:22:02;101133.25;;;-0.06;79.10
73981;BME280;62348;51.412;5.436;2022-11-20T02:24:29;101138.56;;;-0.06;79.47
73981;BME280;62348;51.412;5.436;2022-11-20T02:27:01;101127.75;;;-0.05;79.06
73981;BME280;62348;51.412;5.436;2022-11-20T02:32:02;101127.59;;;-0.03;78.21
73981;BME280;62348;51.412;5.436;2022-11-20T02:34:28;101128.22;;;-0.01;78.92
73981;BME280;62348;51.412;5.436;2022-11-20T02:36:54;101120.06;;;0.01;79.15
73981;BME280;62348;51.412;5.436;2022-11-20T02:39:22;101128.41;;;-0.03;78.62
73981;BME280;62348;51.412;5.436;2022-11-20T02:41:52;101121.06;;;-0.01;79.27
73981;BME280;62348;51.412;5.436;2022-11-20T02:44:18;101119.69;;;0.04;79.08
73981;BME280;62348;51.412;5.436;2022-11-20T02:46:44;101116.19;;;0.03;79.01
73981;BME280;62348;51.412;5.436;2022-11-20T02:49:09;101120.31;;;0.06;79.25
73981;BME280;62348;51.412;5.436;2022-11-20T02:51:35;101126.66;;;0.05;78.80
73981;BME280;62348;51.412;5.436;2022-11-20T02:54:00;101128.28;;;0.06;79.12
73981;BME280;62348;51.412;5.436;2022-11-20T02:56:26;101121.34;;;0.05;78.44
73981;BME280;62348;51.412;5.436;2022-11-20T02:58:51;101122.34;;;0.04;78.89
73981;BME280;62348;51.412;5.436;2022-11-20T03:01:17;101125.00;;;0.04;79.30
73981;BME280;62348;51.412;5.436;2022-11-20T03:03:43;101125.00;;;0.04;78.95
73981;BME280;62348;51.412;5.436;2022-11-20T03:06:08;101114.19;;;0.05;78.79
73981;BME280;62348;51.412;5.436;2022-11-20T03:08:34;101117.03;;;0.04;78.66
73981;BME280;62348;51.412;5.436;2022-11-20T03:11:05;101114.38;;;0.04;78.81
73981;BME280;62348;51.412;5.436;2022-11-20T03:13:31;101121.16;;;0.06;79.27
73981;BME280;62348;51.412;5.436;2022-11-20T03:15:57;101113.00;;;0.08;78.59
73981;BME280;62348;51.412;5.436;2022-11-20T03:18:22;101114.63;;;0.09;79.08
73981;BME280;62348;51.412;5.436;2022-11-20T03:20:47;101103.00;;;0.10;78.63
73981;BME280;62348;51.412;5.436;2022-11-20T03:23:13;101109.78;;;0.12;78.55
73981;BME280;62348;51.412;5.436;2022-11-20T03:25:38;101102.81;;;0.11;78.56
73981;BME280;62348;51.412;5.436;2022-11-20T03:28:04;101105.28;;;0.13;78.82
73981;BME280;62348;51.412;5.436;2022-11-20T03:30:29;101101.81;;;0.12;78.43
73981;BME280;62348;51.412;5.436;2022-11-20T03:32:54;101098.97;;;0.14;78.43
73981;BME280;62348;51.412;5.436;2022-11-20T03:35:20;101090.34;;;0.12;78.39
73981;BME280;62348;51.412;5.436;2022-11-20T03:37:45;101093.81;;;0.12;78.74
73981;BME280;62348;51.412;5.436;2022-11-20T03:40:11;101091.81;;;0.14;79.13
73981;BME280;62348;51.412;5.436;2022-11-20T03:42:37;101087.13;;;0.16;78.98
73981;BME280;62348;51.412;5.436;2022-11-20T03:45:15;101079.97;;;0.17;78.69
73981;BME280;62348;51.412;5.436;2022-11-20T03:47:41;101077.13;;;0.18;79.44
73981;BME280;62348;51.412;5.436;2022-11-20T03:50:08;101074.63;;;0.17;78.50
73981;BME280;62348;51.412;5.436;2022-11-20T03:52:33;101077.50;;;0.15;78.40
73981;BME280;62348;51.412;5.436;2022-11-20T03:54:59;101078.31;;;0.16;78.38
73981;BME280;62348;51.412;5.436;2022-11-20T03:57:24;101081.34;;;0.13;77.89
73981;BME280;62348;51.412;5.436;2022-11-20T03:59:49;101071.56;;;0.13;78.49
73981;BME280;62348;51.412;5.436;2022-11-20T04:02:15;101070.88;;;0.11;78.42
73981;BME280;62348;51.412;5.436;2022-11-20T04:04:40;101067.59;;;0.09;77.91
73981;BME280;62348;51.412;5.436;2022-11-20T04:07:05;101063.13;;;0.10;77.42
73981;BME280;62348;51.412;5.436;2022-11-20T04:09:31;101065.97;;;0.08;77.40
73981;BME280;62348;51.412;5.436;2022-11-20T04:11:56;101064.94;;;0.09;77.54
73981;BME280;62348;51.412;5.436;2022-11-20T04:14:22;101073.38;;;0.13;78.48
73981;BME280;62348;51.412;5.436;2022-11-20T04:16:47;101080.34;;;0.14;78.15
73981;BME280;62348;51.412;5.436;2022-11-20T04:19:15;101067.88;;;0.14;78.37
73981;BME280;62348;51.412;5.436;2022-11-20T04:21:41;101071.97;;;0.17;78.80
73981;BME280;62348;51.412;5.436;2022-11-20T04:24:07;101069.16;;;0.18;79.29
73981;BME280;62348;51.412;5.436;2022-11-20T04:26:33;101069.16;;;0.18;78.60
73981;BME280;62348;51.412;5.436;2022-11-20T04:28:59;101067.13;;;0.21;79.06
73981;BME280;62348;51.412;5.436;2022-11-20T04:31:32;101060.81;;;0.22;78.61
73981;BME280;62348;51.412;5.436;2022-11-20T04:34:02;101072.44;;;0.21;78.57
73981;BME280;62348;51.412;5.436;2022-11-20T04:36:29;101064.28;;;0.22;78.46
73981;BME280;62348;51.412;5.436;2022-11-20T04:38:59;101072.25;;;0.22;78.56
73981;BME280;62348;51.412;5.436;2022-11-20T04:41:31;101066.75;;;0.24;79.20
73981;BME280;62348;51.412;5.436;2022-11-20T04:43:59;101070.88;;;0.26;79.60
73981;BME280;62348;51.412;5.436;2022-11-20T04:46:27;101062.06;;;0.26;79.68
73981;BME280;62348;51.412;5.436;2022-11-20T04:48:53;101056.75;;;0.26;78.71
73981;BME280;62348;51.412;5.436;2022-11-20T04:51:19;101057.75;;;0.25;79.15
73981;BME280;62348;51.412;5.436;2022-11-20T04:53:45;101050.81;;;0.24;79.17
73981;BME280;62348;51.412;5.436;2022-11-20T04:56:11;101055.94;;;0.25;79.59
73981;BME280;62348;51.412;5.436;2022-11-20T04:58:37;101051.44;;;0.26;79.29
73981;BME280;62348;51.412;5.436;2022-11-20T05:01:05;101056.75;;;0.26;79.48
73981;BME280;62348;51.412;5.436;2022-11-20T05:03:31;101044.09;;;0.28;79.46
73981;BME280;62348;51.412;5.436;2022-11-20T05:05:59;101048.59;;;0.27;79.14
73981;BME280;62348;51.412;5.436;2022-11-20T05:08:25;101047.56;;;0.28;79.37
73981;BME280;62348;51.412;5.436;2022-11-20T05:10:50;101042.25;;;0.28;79.65
73981;BME280;62348;51.412;5.436;2022-11-20T05:13:15;101042.06;;;0.30;79.83
73981;BME280;62348;51.412;5.436;2022-11-20T05:15:41;101035.09;;;0.29;79.98
73981;BME280;62348;51.412;5.436;2022-11-20T05:18:06;101035.28;;;0.27;80.17
73981;BME280;62348;51.412;5.436;2022-11-20T05:20:32;101034.09;;;0.30;80.40
73981;BME280;62348;51.412;5.436;2022-11-20T05:22:58;101031.41;;;0.30;80.57
73981;BME280;62348;51.412;5.436;2022-11-20T05:25:23;101020.78;;;0.30;80.22
73981;BME280;62348;51.412;5.436;2022-11-20T05:27:49;101025.91;;;0.31;80.90
73981;BME280;62348;51.412;5.436;2022-11-20T05:30:14;101031.25;;;0.31;81.00
73981;BME280;62348;51.412;5.436;2022-11-20T05:32:40;101026.56;;;0.33;81.17
73981;BME280;62348;51.412;5.436;2022-11-20T05:35:05;101016.09;;;0.32;80.79
73981;BME280;62348;51.412;5.436;2022-11-20T05:37:31;101019.38;;;0.34;80.81
73981;BME280;62348;51.412;5.436;2022-11-20T05:39:56;101021.22;;;0.33;80.93
73981;BME280;62348;51.412;5.436;2022-11-20T05:42:22;101025.34;;;0.36;81.38
73981;BME280;62348;51.412;5.436;2022-11-20T05:45:03;101025.56;;;0.34;80.52
73981;BME280;62348;51.412;5.436;2022-11-20T05:47:32;101028.22;;;0.34;80.98
73981;BME280;62348;51.412;5.436;2022-11-20T05:49:58;101038.84;;;0.34;80.82
73981;BME280;62348;51.412;5.436;2022-11-20T05:52:24;101040.66;;;0.34;81.17
73981;BME280;62348;51.412;5.436;2022-11-20T05:54:49;101037.00;;;0.35;81.38
73981;BME280;62348;51.412;5.436;2022-11-20T05:57:15;101051.75;;;0.37;82.03
73981;BME280;62348;51.412;5.436;2022-11-20T05:59:40;101041.97;;;0.38;82.29
73981;BME280;62348;51.412;5.436;2022-11-20T06:02:06;101046.44;;;0.37;82.10
73981;BME280;62348;51.412;5.436;2022-11-20T06:04:31;101052.59;;;0.38;82.00
73981;BME280;62348;51.412;5.436;2022-11-20T06:06:56;101059.38;;;0.41;82.03
73981;BME280;62348;51.412;5.436;2022-11-20T06:09:22;101059.38;;;0.41;81.97
73981;BME280;62348;51.412;5.436;2022-11-20T06:11:47;101058.34;;;0.42;81.73
73981;BME280;62348;51.412;5.436;2022-11-20T06:14:12;101052.03;;;0.43;81.43
73981;BME280;62348;51.412;5.436;2022-11-20T06:16:38;101050.19;;;0.43;81.28
73981;BME280;62348;51.412;5.436;2022-11-20T06:19:03;101046.53;;;0.44;81.44
73981;BME280;62348;51.412;5.436;2022-11-20T06:21:29;101046.53;;;0.44;81.38
73981;BME280;62348;51.412;5.436;2022-11-20T06:23:54;101046.34;;;0.46;81.60
73981;BME280;62348;51.412;5.436;2022-11-20T06:26:22;101045.31;;;0.47;81.79
73981;BME280;62348;51.412;5.436;2022-11-20T06:28:48;101052.47;;;0.46;81.09
73981;BME280;62348;51.412;5.436;2022-11-20T06:31:15;101048.78;;;0.47;81.80
73981;BME280;62348;51.412;5.436;2022-11-20T06:33:42;101055.94;;;0.47;81.55
73981;BME280;62348;51.412;5.436;2022-11-20T06:36:10;101048.59;;;0.49;81.95
73981;BME280;62348;51.412;5.436;2022-11-20T06:38:36;101046.75;;;0.49;81.64
73981;BME280;62348;51.412;5.436;2022-11-20T06:41:03;101040.63;;;0.49;81.83
73981;BME280;62348;51.412;5.436;2022-11-20T06:43:29;101050.25;;;0.50;81.68
73981;BME280;62348;51.412;5.436;2022-11-20T06:45:56;101036.34;;;0.48;81.02
73981;BME280;62348;51.412;5.436;2022-11-20T06:48:22;101038.16;;;0.47;81.76
73981;BME280;62348;51.412;5.436;2022-11-20T06:50:48;101036.34;;;0.48;81.62
73981;BME280;62348;51.412;5.436;2022-11-20T06:53:14;101040.81;;;0.47;81.92
73981;BME280;62348;51.412;5.436;2022-11-20T06:55:46;101035.47;;;0.47;81.21
73981;BME280;62348;51.412;5.436;2022-11-20T06:58:12;101037.16;;;0.48;82.30
73981;BME280;62348;51.412;5.436;2022-11-20T07:00:38;101036.50;;;0.46;81.48
73981;BME280;62348;51.412;5.436;2022-11-20T07:03:04;101039.19;;;0.46;81.41
73981;BME280;62348;51.412;5.436;2022-11-20T07:05:30;101037.31;;;0.47;81.59
73981;BME280;62348;51.412;5.436;2022-11-20T07:07:56;101044.50;;;0.46;81.93
73981;BME280;62348;51.412;5.436;2022-11-20T07:10:21;101025.25;;;0.44;81.67
73981;BME280;62348;51.412;5.436;2022-11-20T07:12:53;101029.53;;;0.45;81.76
73981;BME280;62348;51.412;5.436;2022-11-20T07:15:20;101029.53;;;0.45;82.00
73981;BME280;62348;51.412;5.436;2022-11-20T07:17:46;101023.56;;;0.43;82.21
73981;BME280;62348;51.412;5.436;2022-11-20T07:20:12;101021.94;;;0.42;82.30
73981;BME280;62348;51.412;5.436;2022-11-20T07:22:38;101016.63;;;0.42;82.72
73981;BME280;62348;51.412;5.436;2022-11-20T07:25:03;101026.06;;;0.45;82.85
73981;BME280;62348;51.412;5.436;2022-11-20T07:27:29;101031.38;;;0.45;82.52
73981;BME280;62348;51.412;5.436;2022-11-20T07:29:55;101026.50;;;0.48;83.68
73981;BME280;62348;51.412;5.436;2022-11-20T07:32:20;101015.69;;;0.50;83.30
73981;BME280;62348;51.412;5.436;2022-11-20T07:34:46;101016.94;;;0.54;83.69
73981;BME280;62348;51.412;5.436;2022-11-20T07:37:12;101014.09;;;0.55;83.76
73981;BME280;62348;51.412;5.436;2022-11-20T07:39:37;101022.72;;;0.57;83.67
73981;BME280;62348;51.412;5.436;2022-11-20T07:42:03;101018.19;;;0.58;83.43
73981;BME280;62348;51.412;5.436;2022-11-20T07:44:28;101026.19;;;0.58;82.82
73981;BME280;62348;51.412;5.436;2022-11-20T07:46:54;101015.72;;;0.56;81.95
73981;BME280;62348;51.412;5.436;2022-11-20T07:49:19;101016.75;;;0.55;82.31
73981;BME280;62348;51.412;5.436;2022-11-20T07:51:44;101022.25;;;0.54;82.40
73981;BME280;62348;51.412;5.436;2022-11-20T07:54:10;101027.41;;;0.55;83.03
73981;BME280;62348;51.412;5.436;2022-11-20T07:56:35;101023.72;;;0.56;83.55
73981;BME280;62348;51.412;5.436;2022-11-20T07:59:01;101033.16;;;0.59;82.57
73981;BME280;62348;51.412;5.436;2022-11-20T08:01:26;101027.63;;;0.61;82.53
73981;BME280;62348;51.412;5.436;2022-11-20T08:03:52;101028.47;;;0.61;82.83
73981;BME280;62348;51.412;5.436;2022-11-20T08:06:17;101029.47;;;0.60;82.65
73981;BME280;62348;51.412;5.436;2022-11-20T08:08:44;101030.28;;;0.61;82.51
73981;BME280;62348;51.412;5.436;2022-11-20T08:11:10;101025.63;;;0.63;82.61
73981;BME280;62348;51.412;5.436;2022-11-20T08:13:53;101030.75;;;0.64;82.50
73981;BME280;62348;51.412;5.436;2022-11-20T08:16:42;101032.22;;;0.67;82.91
73981;BME280;62348;51.412;5.436;2022-11-20T08:19:08;101027.34;;;0.70;82.39
73981;BME280;62348;51.412;5.436;2022-11-20T08:21:33;101029.78;;;0.72;82.48
73981;BME280;62348;51.412;5.436;2022-11-20T08:23:59;101023.47;;;0.73;82.79
73981;BME280;62348;51.412;5.436;2022-11-20T08:26:25;101027.13;;;0.72;82.46
73981;BME280;62348;51.412;5.436;2022-11-20T08:28:57;101027.13;;;0.72;83.15
73981;BME280;62348;51.412;5.436;2022-11-20T08:31:23;101027.63;;;0.82;82.54
73981;BME280;62348;51.412;5.436;2022-11-20T08:33:49;101029.03;;;0.78;83.63
73981;BME280;62348;51.412;5.436;2022-11-20T08:36:15;101034.81;;;0.82;83.12
73981;BME280;62348;51.412;5.436;2022-11-20T08:38:40;101035.44;;;0.84;83.40
73981;BME280;62348;51.412;5.436;2022-11-20T08:41:06;101035.84;;;0.87;84.33
73981;BME280;62348;51.412;5.436;2022-11-20T08:43:55;101036.50;;;0.89;84.12
73981;BME280;62348;51.412;5.436;2022-11-20T08:46:21;101028.13;;;0.92;84.35
73981;BME280;62348;51.412;5.436;2022-11-20T08:48:47;101024.91;;;0.97;84.36
73981;BME280;62348;51.412;5.436;2022-11-20T08:51:13;101030.44;;;1.02;84.71
73981;BME280;62348;51.412;5.436;2022-11-20T08:53:39;101030.25;;;1.04;84.48
73981;BME280;62348;51.412;5.436;2022-11-20T08:56:05;101023.53;;;1.08;84.61
73981;BME280;62348;51.412;5.436;2022-11-20T08:58:30;101019.84;;;1.09;84.60
73981;BME280;62348;51.412;5.436;2022-11-20T09:00:56;101018.81;;;1.10;85.02
73981;BME280;62348;51.412;5.436;2022-11-20T09:03:21;101017.63;;;1.12;84.78
73981;BME280;62348;51.412;5.436;2022-11-20T09:05:47;101029.91;;;1.13;85.23
73981;BME280;62348;51.412;5.436;2022-11-20T09:08:12;101022.56;;;1.15;85.33
73981;BME280;62348;51.412;5.436;2022-11-20T09:10:38;101027.50;;;1.19;85.43
73981;BME280;62348;51.412;5.436;2022-11-20T09:13:06;101009.66;;;1.19;86.08
73981;BME280;62348;51.412;5.436;2022-11-20T09:15:32;101015.00;;;1.19;86.32
73981;BME280;62348;51.412;5.436;2022-11-20T09:18:00;101009.28;;;1.22;86.89
73981;BME280;62348;51.412;5.436;2022-11-20T09:20:27;101001.94;;;1.24;86.98
73981;BME280;62348;51.412;5.436;2022-11-20T09:22:54;101003.38;;;1.27;87.28
73981;BME280;62348;51.412;5.436;2022-11-20T09:25:20;101002.19;;;1.29;87.55
73981;BME280;62348;51.412;5.436;2022-11-20T09:27:45;100989.47;;;1.31;87.46
73981;BME280;62348;51.412;5.436;2022-11-20T09:30:12;100990.91;;;1.34;87.72
73981;BME280;62348;51.412;5.436;2022-11-20T09:32:39;100987.03;;;1.36;87.06
73981;BME280;62348;51.412;5.436;2022-11-20T09:35:05;100989.13;;;1.41;87.71
73981;BME280;62348;51.412;5.436;2022-11-20T09:37:30;100978.47;;;1.41;87.42
73981;BME280;62348;51.412;5.436;2022-11-20T09:39:55;100977.22;;;1.44;87.00
73981;BME280;62348;51.412;5.436;2022-11-20T09:42:35;100966.38;;;1.45;87.16
73981;BME280;62348;51.412;5.436;2022-11-20T09:48:02;100968.66;;;1.48;87.62
73981;BME280;62348;51.412;5.436;2022-11-20T09:50:34;100961.91;;;1.52;87.51
73981;BME280;62348;51.412;5.436;2022-11-20T09:56:15;100966.63;;;1.57;87.55
73981;BME280;62348;51.412;5.436;2022-11-20T09:58:45;100960.94;;;1.60;87.78
73981;BME280;62348;51.412;5.436;2022-11-20T10:01:15;100950.06;;;1.62;87.67
73981;BME280;62348;51.412;5.436;2022-11-20T10:03:52;100945.97;;;1.66;87.59
73981;BME280;62348;51.412;5.436;2022-11-20T10:06:26;100939.03;;;1.71;88.34
73981;BME280;62348;51.412;5.436;2022-11-20T10:20:19;100893.53;;;1.93;88.16
73981;BME280;62348;51.412;5.436;2022-11-20T10:23:28;100883.91;;;1.99;87.52
73981;BME280;62348;51.412;5.436;2022-11-20T10:31:43;100892.56;;;2.14;88.05
73981;BME280;62348;51.412;5.436;2022-11-20T10:34:22;100892.16;;;2.17;88.17
73981;BME280;62348;51.412;5.436;2022-11-20T10:36:56;100886.19;;;2.22;88.27
73981;BME280;62348;51.412;5.436;2022-11-20T10:42:29;100883.75;;;2.27;87.67
73981;BME280;62348;51.412;5.436;2022-11-20T10:45:15;100871.22;;;2.27;87.38
73981;BME280;62348;51.412;5.436;2022-11-20T10:47:44;100863.00;;;2.29;87.70
73981;BME280;62348;51.412;5.436;2022-11-20T10:50:13;100856.44;;;2.31;88.43
73981;BME280;62348;51.412;5.436;2022-11-20T10:55:40;100843.09;;;2.38;87.71
73981;BME280;62348;51.412;5.436;2022-11-20T10:58:20;100830.38;;;2.40;88.09
73981;BME280;62348;51.412;5.436;2022-11-20T11:00:48;100833.44;;;2.44;88.16
73981;BME280;62348;51.412;5.436;2022-11-20T11:03:27;100834.66;;;2.48;88.75
73981;BME280;62348;51.412;5.436;2022-11-20T11:06:00;100822.13;;;2.48;88.33
73981;BME280;62348;51.412;5.436;2022-11-20T11:08:34;100829.75;;;2.51;88.65
73981;BME280;62348;51.412;5.436;2022-11-20T11:11:07;100832.00;;;2.54;88.77
73981;BME280;62348;51.412;5.436;2022-11-20T11:13:38;100827.28;;;2.57;88.76
73981;BME280;62348;51.412;5.436;2022-11-20T11:16:03;100820.91;;;2.58;88.18
73981;BME280;62348;51.412;5.436;2022-11-20T11:18:33;100812.47;;;2.61;88.39
73981;BME280;62348;51.412;5.436;2022-11-20T11:21:02;100814.34;;;2.60;88.79
73981;BME280;62348;51.412;5.436;2022-11-20T11:23:37;100816.56;;;2.63;88.91
73981;BME280;62348;51.412;5.436;2022-11-20T11:26:06;100819.84;;;2.65;89.07
73981;BME280;62348;51.412;5.436;2022-11-20T11:28:32;100814.31;;;2.67;89.21
73981;BME280;62348;51.412;5.436;2022-11-20T11:30:58;100807.94;;;2.68;89.37
73981;BME280;62348;51.412;5.436;2022-11-20T11:33:25;100802.41;;;2.69;89.36
73981;BME280;62348;51.412;5.436;2022-11-20T11:35:53;100798.69;;;2.70;89.19
73981;BME280;62348;51.412;5.436;2022-11-20T11:38:28;100793.75;;;2.74;89.36
73981;BME280;62348;51.412;5.436;2022-11-20T11:40:56;100796.22;;;2.76;89.26
73981;BME280;62348;51.412;5.436;2022-11-20T11:43:28;100790.44;;;2.79;89.69
73981;BME280;62348;51.412;5.436;2022-11-20T11:51:38;100773.38;;;2.86;89.41
73981;BME280;62348;51.412;5.436;2022-11-20T11:54:21;100763.09;;;2.90;89.65
73981;BME280;62348;51.412;5.436;2022-11-20T11:56:49;100760.19;;;2.91;89.84
73981;BME280;62348;51.412;5.436;2022-11-20T11:59:51;100757.94;;;2.95;89.60
73981;BME280;62348;51.412;5.436;2022-11-20T12:04:58;100742.09;;;3.00;90.07
73981;BME280;62348;51.412;5.436;2022-11-20T12:10:00;100722.13;;;3.03;90.38
73981;BME280;62348;51.412;5.436;2022-11-20T12:12:43;100725.22;;;3.06;90.44
73981;BME280;62348;51.412;5.436;2022-11-20T12:15:11;100717.59;;;3.10;90.59
73981;BME280;62348;51.412;5.436;2022-11-20T12:17:39;100704.22;;;3.10;90.52
73981;BME280;62348;51.412;5.436;2022-11-20T12:20:12;100694.75;;;3.14;90.97
73981;BME280;62348;51.412;5.436;2022-11-20T12:33:57;100671.00;;;3.31;91.25
73981;BME280;62348;51.412;5.436;2022-11-20T12:42:03;100664.34;;;3.40;91.41
73981;BME280;62348;51.412;5.436;2022-11-20T12:51:44;100640.22;;;3.47;91.21
73981;BME280;62348;51.412;5.436;2022-11-20T12:56:37;100624.16;;;3.54;91.53
73981;BME280;62348;51.412;5.436;2022-11-20T13:01:58;100608.63;;;3.62;91.66
73981;BME280;62348;51.412;5.436;2022-11-20T13:04:48;100602.84;;;3.65;91.56
73981;BME280;62348;51.412;5.436;2022-11-20T13:07:19;100596.00;;;3.69;92.04
73981;BME280;62348;51.412;5.436;2022-11-20T13:09:48;100592.09;;;3.72;91.79
73981;BME280;62348;51.412;5.436;2022-11-20T13:12:23;100584.44;;;3.76;91.92
73981;BME280;62348;51.412;5.436;2022-11-20T13:14:56;100577.03;;;3.78;91.84
73981;BME280;62348;51.412;5.436;2022-11-20T13:17:34;100577.63;;;3.80;92.01
73981;BME280;62348;51.412;5.436;2022-11-20T13:20:04;100567.50;;;3.82;92.02
73981;BME280;62348;51.412;5.436;2022-11-20T13:22:54;100572.19;;;3.86;91.56
73981;BME280;62348;51.412;5.436;2022-11-20T13:25:32;100563.94;;;3.88;92.33
73981;BME280;62348;51.412;5.436;2022-11-20T13:28:01;100559.78;;;3.92;92.58
73981;BME280;62348;51.412;5.436;2022-11-20T13:30:29;100552.34;;;3.94;92.23
73981;BME280;62348;51.412;5.436;2022-11-20T13:35:27;100541.78;;;3.99;92.12
73981;BME280;62348;51.412;5.436;2022-11-20T13:38:12;100531.91;;;4.00;92.40
73981;BME280;62348;51.412;5.436;2022-11-20T13:46:03;100521.94;;;4.07;92.27
73981;BME280;62348;51.412;5.436;2022-11-20T13:48:31;100515.56;;;4.08;92.48
73981;BME280;62348;51.412;5.436;2022-11-20T13:54:13;100503.34;;;4.12;92.30
73981;BME280;62348;51.412;5.436;2022-11-20T13:56:56;100500.47;;;4.14;92.60
73981;BME280;62348;51.412;5.436;2022-11-20T13:59:56;100492.19;;;4.15;92.75
73981;BME280;62348;51.412;5.436;2022-11-20T14:02:23;100496.06;;;4.19;92.67
73981;BME280;62348;51.412;5.436;2022-11-20T14:04:52;100491.50;;;4.20;92.61
73981;BME280;62348;51.412;5.436;2022-11-20T14:07:21;100492.09;;;4.22;93.10
73981;BME280;62348;51.412;5.436;2022-11-20T14:09:52;100492.09;;;4.22;92.94
73981;BME280;62348;51.412;5.436;2022-11-20T14:12:20;100471.50;;;4.22;93.17
73981;BME280;62348;51.412;5.436;2022-11-20T14:14:49;100473.16;;;4.23;93.43
73981;BME280;62348;51.412;5.436;2022-11-20T14:17:30;100464.88;;;4.25;93.57
73981;BME280;62348;51.412;5.436;2022-11-20T14:20:00;100456.03;;;4.24;93.40
73981;BME280;62348;51.412;5.436;2022-11-20T14:22:27;100458.47;;;4.26;93.93
73981;BME280;62348;51.412;5.436;2022-11-20T14:25:18;100452.09;;;4.27;94.20
73981;BME280;62348;51.412;5.436;2022-11-20T14:27:55;100460.13;;;4.27;94.22
73981;BME280;62348;51.412;5.436;2022-11-20T14:30:26;100452.09;;;4.27;94.42